Terminal Aerodrome Forecast
Issued by NWS

Home | Current Version | Previous Version | Text Only | Print | Product List | Glossary On
Versions: 1 2 3 4 5 6 7 8 9 10 11 12 13 14 15 16 17 18 19 20 21 22 23 24 25 26 27 28 29 30 31 32 33
000
FTUS43 KSGF 240500 AAB
TAFJLN
TAF AMD
KJLN 240500Z 2405/2424 16014KT 4SM RA BR VCTS SCT030CB BKN060
      OVC110 WS020/18045KT
      TEMPO 2408/2412 2SM -TSRA BR SCT007 OVC015CB
     FM241200 17014KT 4SM -RA BR VCTS SCT007 OVC015CB
     FM241800 15012G18KT P6SM VCTS OVC030CB
      TEMPO 2418/2422 5SM -TSRA=

USA.gov is the U.S. government's official web portal to all federal, state and local government web resources and services.